Sioux City, IA

6:02 AM CDT on July 04, 2015 (GMT -0500)
Morningside | | Change Station
CLOSE
Current Station
Personal Weather Station
Location: Sioux City, IA
Elevation: 1250 ft
Nearby Weather Stations

Elev 1250 ft 42.46 °N, 96.36 °W | Updated 5 seconds ago

Clear
Clear
58.5 °F
Feels Like 58.5 °F
N
0.0
Wind Variable Wind from SSE
Gusts 0.0 mph

Today
High -- | Low -- °F
--% Chance of Precip.
Yesterday
High -- | Low -- °F
Precip. -- in
5:53 AM 9:05 PM
Waning Gibbous, 93% visible
Pressure 29.97 in
Visibility 8.0 miles
Clouds Clear
Dew Point 56 °F
Humidity 92%
Rainfall 0.00 in
Snow Depth Not available.
UV 0 out of 12
Pollen 3.40 out of 12
Air Quality Not available.
Flu Activity Not available.
METAR KSUX 041052Z 10004KT 8SM CLR 14/12 A2998 RMK AO2 SLP147 T01390117

More Conditions Fewer Conditions

Pressure 29.97 in
Visibility 8.0 miles
Clouds Clear
Dew Point 56 °F
Humidity 92%
Rainfall 0.00 in
Snow Depth Not available.
UV 0 out of 12
Pollen 3.40 out of 12
Air Quality Not available.
Flu Activity Not available.
METAR KSUX 041052Z 10004KT 8SM CLR 14/12 A2998 RMK AO2 SLP147 T01390117

More Conditions Fewer Conditions

10-Day Weather Forecast

×

Almanac

Astronomy

Jul. 04, 2015 Rise Set
Actual Time
Civil Twilight
Nautical Twilight
Astronomical Twilight
Moon
Length of Visible Light
Length of Day
Tomorrow will be .
, % of the Moon is Illuminated

Today's Extremes

State Highs State Lows

Community

WunderPhotos

Upload Photos

1,834,939 photos uploaded!

WunderBlogs® & News

Nearby

Air Quality

  Air Quality AQ Index Pollutant
Not available.

Snow Depth

Station Depth Elevation

Earthquake Activity

City Distance Mag. Time & Date
Minimum magnitude displayed is 2.5.

Coastal Water Temperatures

Place Temperature

Stations

Nearby Weather Stations

Station Location Temp. Windchill Dew Point Humidity Wind Precip. Elev Updated Type